createdAt,value
2023-01-13T00:00:44.288Z,8.20
2023-01-13T00:06:21.369Z,8.10
2023-01-13T00:08:59.854Z,8.10
2023-01-13T00:11:45.732Z,8.10
2023-01-13T00:15:27.049Z,8.10
2023-01-13T00:18:22.075Z,8.00
2023-01-13T00:21:30.875Z,8.00
2023-01-13T00:27:37.075Z,8.10
2023-01-13T00:31:27.096Z,8.00
2023-01-13T00:34:09.035Z,7.90
2023-01-13T00:40:39.940Z,8.00
2023-01-13T00:47:13.541Z,7.90
2023-01-13T00:49:45.261Z,7.80
2023-01-13T00:52:22.735Z,7.80
2023-01-13T00:55:36.478Z,7.90
2023-01-13T00:58:08.240Z,7.90
2023-01-13T01:01:12.746Z,7.80
2023-01-13T01:07:46.917Z,7.70
2023-01-13T01:10:55.177Z,7.70
2023-01-13T01:13:29.200Z,7.70
2023-01-13T01:16:25.976Z,7.70
2023-01-13T01:19:07.999Z,7.70
2023-01-13T01:21:43.705Z,7.70
2023-01-13T01:24:13.948Z,7.70
2023-01-13T01:26:57.964Z,7.70
2023-01-13T01:29:47.463Z,7.60
2023-01-13T01:32:23.226Z,7.70
2023-01-13T01:35:19.105Z,7.70
2023-01-13T01:38:22.189Z,7.70
2023-01-13T01:41:08.238Z,7.70
2023-01-13T01:44:21.143Z,7.60
2023-01-13T01:47:06.449Z,7.60
2023-01-13T01:49:34.419Z,7.60
2023-01-13T01:52:28.268Z,7.50
2023-01-13T01:55:25.087Z,7.50
2023-01-13T01:58:19.241Z,7.50
2023-01-13T02:01:11.009Z,7.50
2023-01-13T02:03:44.024Z,7.50
2023-01-13T02:06:20.275Z,7.40
2023-01-13T02:09:18.363Z,7.50
2023-01-13T02:12:22.840Z,7.40
2023-01-13T02:15:07.452Z,7.60
2023-01-13T02:17:56.380Z,7.50
2023-01-13T02:21:12.399Z,7.50
2023-01-13T02:24:10.231Z,7.40
2023-01-13T02:27:32.385Z,7.50
2023-01-13T02:30:52.536Z,7.40
2023-01-13T02:33:47.055Z,7.40
2023-01-13T02:36:43.278Z,7.30
2023-01-13T02:39:39.498Z,7.40
2023-01-13T02:45:56.623Z,7.40
2023-01-13T02:48:47.406Z,7.30
2023-01-13T02:51:17.433Z,7.40
2023-01-13T02:54:00.079Z,7.30
2023-01-13T02:57:10.887Z,7.40
2023-01-13T03:00:27.184Z,7.40
2023-01-13T03:03:07.457Z,7.50
2023-01-13T03:08:48.307Z,7.50
2023-01-13T03:11:44.606Z,7.40
2023-01-13T03:15:03.576Z,7.50
2023-01-13T03:22:12.254Z,7.40
2023-01-13T03:28:00.409Z,7.50
2023-01-13T03:29:36.005Z,7.40
2023-01-13T03:32:52.262Z,7.30
2023-01-13T03:36:03.265Z,7.40
2023-01-13T03:39:06.515Z,7.40
2023-01-13T03:42:18.176Z,7.40
2023-01-13T03:45:26.245Z,7.40
2023-01-13T03:48:06.441Z,7.40
2023-01-13T03:51:43.979Z,7.40
2023-01-13T03:55:12.251Z,7.40
2023-01-13T03:58:34.828Z,7.40
2023-01-13T04:04:11.445Z,7.30
2023-01-13T04:09:52.354Z,7.30
2023-01-13T04:13:02.152Z,7.40
2023-01-13T04:15:56.121Z,7.40
2023-01-13T04:19:14.478Z,7.40
2023-01-13T04:21:58.848Z,7.60
2023-01-13T04:24:35.757Z,7.60
2023-01-13T04:33:56.701Z,7.60
2023-01-13T04:36:56.444Z,7.50
2023-01-13T04:39:29.299Z,7.50
2023-01-13T04:45:24.894Z,7.30
2023-01-13T04:47:58.238Z,7.30
2023-01-13T04:50:36.329Z,7.40
2023-01-13T04:53:30.609Z,7.30
2023-01-13T04:56:04.874Z,7.30
2023-01-13T04:58:32.447Z,7.30
2023-01-13T05:01:02.354Z,7.30
2023-01-13T05:03:44.437Z,7.20
2023-01-13T05:06:29.545Z,7.20
2023-01-13T05:09:05.975Z,7.20
2023-01-13T05:15:10.795Z,7.30
2023-01-13T05:17:46.075Z,7.30
2023-01-13T05:20:30.475Z,7.20
2023-01-13T05:24:00.463Z,7.20
2023-01-13T05:29:28.595Z,7.20
2023-01-13T05:32:07.039Z,7.20
2023-01-13T05:34:43.932Z,7.20
2023-01-13T05:37:13.473Z,7.20
2023-01-13T05:40:02.142Z,7.20
2023-01-13T05:43:01.839Z,7.20
2023-01-13T05:45:53.030Z,7.20
2023-01-13T05:48:29.349Z,7.30
2023-01-13T05:51:33.553Z,7.30
2023-01-13T05:54:04.804Z,7.30
2023-01-13T05:56:32.596Z,7.30
2023-01-13T05:59:06.891Z,7.30
2023-01-13T06:01:37.624Z,7.30
2023-01-13T06:04:06.238Z,7.20
2023-01-13T06:06:33.966Z,7.20
2023-01-13T06:09:38.405Z,7.20
2023-01-13T06:12:19.208Z,7.20
2023-01-13T06:15:03.173Z,7.20
2023-01-13T06:17:33.573Z,7.20
2023-01-13T06:20:00.903Z,7.10
2023-01-13T06:22:33.887Z,7.20
2023-01-13T06:25:09.625Z,7.10
2023-01-13T06:27:49.541Z,7.20
2023-01-13T06:30:20.039Z,7.30
2023-01-13T06:33:36.561Z,7.20
2023-01-13T06:36:38.361Z,7.30
2023-01-13T06:39:32.401Z,7.30
2023-01-13T06:42:18.797Z,7.30
2023-01-13T06:44:48.332Z,7.30
2023-01-13T06:47:15.922Z,7.40
2023-01-13T06:50:00.193Z,7.30
2023-01-13T06:52:35.897Z,7.40
2023-01-13T06:55:37.035Z,7.40
2023-01-13T06:58:15.236Z,7.30
2023-01-13T07:00:51.981Z,7.40
2023-01-13T07:03:24.823Z,7.40
2023-01-13T07:05:59.553Z,7.40
2023-01-13T07:08:54.265Z,7.50
2023-01-13T07:11:22.577Z,7.50
2023-01-13T07:21:22.466Z,7.60
2023-01-13T07:23:53.769Z,7.60
2023-01-13T07:27:48.234Z,7.60
2023-01-13T07:31:49.988Z,7.60
2023-01-13T07:33:34.826Z,7.50
2023-01-13T07:36:47.670Z,7.50
2023-01-13T07:42:54.710Z,7.40
2023-01-13T07:45:33.492Z,7.40
2023-01-13T07:51:51.356Z,7.30
2023-01-13T07:54:39.059Z,7.30
2023-01-13T08:00:53.888Z,7.30
2023-01-13T08:03:29.651Z,7.30
2023-01-13T08:06:04.616Z,7.40
2023-01-13T08:09:00.226Z,7.50
2023-01-13T08:12:53.268Z,7.60
2023-01-13T08:16:01.912Z,7.70
2023-01-13T08:18:59.974Z,7.70
2023-01-13T08:21:43.395Z,7.60
2023-01-13T08:27:31.954Z,7.60
2023-01-13T08:34:20.680Z,7.50
2023-01-13T08:37:04.129Z,7.50
2023-01-13T08:40:24.383Z,7.50
2023-01-13T08:58:30.727Z,7.60
2023-01-13T09:01:40.989Z,7.70
2023-01-13T09:08:29.076Z,7.70
2023-01-13T09:11:12.693Z,7.70
2023-01-13T09:15:17.097Z,7.70
2023-01-13T09:17:57.085Z,7.80
2023-01-13T09:24:14.669Z,7.80
2023-01-13T09:30:30.313Z,8.00
2023-01-13T09:33:54.106Z,8.00
2023-01-13T09:44:05.300Z,8.20
2023-01-13T09:46:45.539Z,8.20
2023-01-13T09:49:33.442Z,8.20
2023-01-13T09:52:42.110Z,8.20
2023-01-13T09:55:26.996Z,8.30
2023-01-13T09:58:30.849Z,8.40
2023-01-13T10:01:42.542Z,8.40
2023-01-13T10:08:24.272Z,8.60
2023-01-13T10:18:16.333Z,8.70
2023-01-13T10:25:25.412Z,8.70
2023-01-13T10:28:45.040Z,8.90
2023-01-13T10:32:08.020Z,8.90
2023-01-13T10:38:14.917Z,9.00
2023-01-13T10:40:58.828Z,9.10
2023-01-13T10:47:31.360Z,9.20
2023-01-13T10:50:15.340Z,9.40
2023-01-13T10:53:21.812Z,9.50
2023-01-13T10:56:43.843Z,9.50
2023-01-13T11:00:44.600Z,9.50
2023-01-13T11:04:08.959Z,9.50
2023-01-13T11:06:46.270Z,9.50
2023-01-13T11:13:09.326Z,9.40
2023-01-13T11:15:58.013Z,9.50
2023-01-13T11:19:26.070Z,9.50
2023-01-13T11:21:55.458Z,9.50
2023-01-13T11:25:15.533Z,9.50
2023-01-13T11:28:41.818Z,9.60
2023-01-13T11:31:29.418Z,9.60
2023-01-13T11:34:24.761Z,9.60
2023-01-13T11:43:30.349Z,9.80
2023-01-13T11:46:03.144Z,9.90
2023-01-13T11:49:14.590Z,9.90
2023-01-13T11:55:53.686Z,10.10
2023-01-13T11:59:11.157Z,10.20
2023-01-13T12:02:33.779Z,10.20
2023-01-13T12:05:59.923Z,10.30
2023-01-13T12:09:14.841Z,10.20
2023-01-13T12:13:23.269Z,10.30
2023-01-13T12:16:03.688Z,10.40
2023-01-13T12:33:21.498Z,10.60
2023-01-13T12:36:22.760Z,10.60
2023-01-13T12:48:18.190Z,10.40
2023-01-13T12:50:45.951Z,10.30
2023-01-13T12:55:01.876Z,10.20
2023-01-13T12:57:40.994Z,10.20
2023-01-13T13:01:26.366Z,10.10
2023-01-13T13:04:30.871Z,10.20
2023-01-13T13:07:09.665Z,10.30
2023-01-13T13:13:45.977Z,10.20
2023-01-13T13:17:02.715Z,10.30
2023-01-13T13:22:57.557Z,10.40
2023-01-13T13:29:39.854Z,10.50
2023-01-13T13:33:39.173Z,10.40
2023-01-13T13:41:09.623Z,10.40
2023-01-13T13:44:22.686Z,10.40
2023-01-13T13:57:33.787Z,10.60
2023-01-13T13:59:41.017Z,10.60
2023-01-13T14:02:30.847Z,10.60
2023-01-13T14:05:36.449Z,10.60
2023-01-13T14:08:12.457Z,10.60
2023-01-13T14:11:11.190Z,10.50
2023-01-13T14:14:00.930Z,10.50
2023-01-13T15:23:58.200Z,10.00
2023-01-13T15:26:59.119Z,9.80
2023-01-13T15:29:36.717Z,9.80
2023-01-13T15:32:26.946Z,9.70
2023-01-13T15:34:54.784Z,9.60
2023-01-13T15:37:40.187Z,9.60
2023-01-13T15:40:43.516Z,9.50
2023-01-13T15:43:40.088Z,9.40
2023-01-13T15:49:16.059Z,9.30
2023-01-13T15:51:50.553Z,9.30
2023-01-13T15:54:25.048Z,9.30
2023-01-13T15:56:55.446Z,9.20
2023-01-13T15:59:26.439Z,9.20
2023-01-13T16:02:44.111Z,9.20
2023-01-13T16:05:34.321Z,9.20
2023-01-13T16:08:09.064Z,9.10
2023-01-13T16:10:43.813Z,9.10
2023-01-13T16:13:42.359Z,9.00
2023-01-13T16:16:39.580Z,9.00
2023-01-13T16:19:29.658Z,8.90
2023-01-13T16:22:28.331Z,8.90
2023-01-13T16:25:14.819Z,8.90
2023-01-13T16:31:32.458Z,8.90
2023-01-13T16:41:05.978Z,8.80
2023-01-13T16:44:12.266Z,8.80
2023-01-13T16:46:51.635Z,8.80
2023-01-13T16:49:30.572Z,8.80
2023-01-13T16:52:06.840Z,8.80
2023-01-13T16:54:55.755Z,8.80
2023-01-13T16:57:36.198Z,8.80
2023-01-13T17:00:15.010Z,8.70
2023-01-13T17:03:08.331Z,8.70
2023-01-13T17:05:43.867Z,8.70
2023-01-13T17:08:40.274Z,8.70
2023-01-13T17:11:13.291Z,8.70
2023-01-13T17:13:43.649Z,8.60
2023-01-13T17:16:18.906Z,8.60
2023-01-13T17:18:48.321Z,8.50
2023-01-13T17:21:15.611Z,8.50
2023-01-13T17:23:43.366Z,8.40
2023-01-13T17:26:32.319Z,8.30
2023-01-13T17:29:00.687Z,8.30
2023-01-13T17:31:28.304Z,8.20
2023-01-13T17:34:07.019Z,8.20
2023-01-13T17:36:36.429Z,8.10
2023-01-13T17:39:04.929Z,8.10
2023-01-13T17:41:36.272Z,8.10
2023-01-13T17:44:09.354Z,8.10
2023-01-13T17:46:39.565Z,8.00
2023-01-13T17:49:06.680Z,8.00
2023-01-13T17:51:39.797Z,7.90
2023-01-13T17:54:07.000Z,7.90
2023-01-13T17:56:34.876Z,7.90
2023-01-13T17:59:11.668Z,7.80
2023-01-13T18:01:44.253Z,7.80
2023-01-13T18:04:18.807Z,7.80
2023-01-13T18:06:46.019Z,7.70
2023-01-13T18:09:13.853Z,7.70
2023-01-13T18:12:07.150Z,7.70
2023-01-13T18:14:48.620Z,7.60
2023-01-13T18:17:22.928Z,7.60
2023-01-13T18:20:13.659Z,7.50
2023-01-13T18:23:13.540Z,7.50
2023-01-13T18:26:00.296Z,7.50
2023-01-13T18:28:33.883Z,7.40
2023-01-13T18:31:18.940Z,7.30
2023-01-13T18:33:58.311Z,7.30
2023-01-13T18:36:34.769Z,7.30
2023-01-13T18:42:55.637Z,7.20
2023-01-13T18:45:25.998Z,7.30
2023-01-13T18:48:00.837Z,7.30
2023-01-13T18:50:57.025Z,7.20
2023-01-13T18:53:28.730Z,7.20
2023-01-13T18:56:27.711Z,7.20
2023-01-13T19:01:55.077Z,7.20
2023-01-13T19:04:22.232Z,7.20
2023-01-13T19:07:03.932Z,7.20
2023-01-13T19:09:31.792Z,7.20
2023-01-13T19:12:01.307Z,7.10
2023-01-13T19:15:01.031Z,7.10
2023-01-13T19:17:37.638Z,7.00
2023-01-13T19:20:30.424Z,7.00
2023-01-13T19:23:14.529Z,7.00
2023-01-13T19:26:09.862Z,7.00
2023-01-13T19:31:54.151Z,7.00
2023-01-13T19:34:27.204Z,7.00
2023-01-13T19:37:09.609Z,7.00
2023-01-13T19:39:54.755Z,7.00
2023-01-13T19:42:41.544Z,7.00
2023-01-13T19:48:23.443Z,6.90
2023-01-13T19:51:00.657Z,7.00
2023-01-13T19:53:31.470Z,7.00
2023-01-13T19:59:09.461Z,6.90
2023-01-13T20:01:56.596Z,6.90
2023-01-13T20:08:23.024Z,6.90
2023-01-13T20:11:18.814Z,6.90
2023-01-13T20:13:45.998Z,6.80
2023-01-13T20:16:18.150Z,6.80
2023-01-13T20:18:51.885Z,6.80
2023-01-13T20:21:19.194Z,6.70
2023-01-13T20:23:49.167Z,6.70
2023-01-13T20:26:18.605Z,6.70
2023-01-13T20:28:51.450Z,6.70
2023-01-13T20:31:20.762Z,6.70
2023-01-13T20:33:51.506Z,6.60
2023-01-13T20:36:25.846Z,6.60
2023-01-13T20:38:56.570Z,6.50
2023-01-13T20:41:42.466Z,6.50
2023-01-13T20:44:12.032Z,6.50
2023-01-13T20:46:41.272Z,6.50
2023-01-13T20:49:11.063Z,6.40
2023-01-13T20:51:43.885Z,6.30
2023-01-13T20:54:11.633Z,6.30
2023-01-13T20:56:39.177Z,6.30
2023-01-13T20:59:08.480Z,6.30
2023-01-13T21:01:35.976Z,6.30
2023-01-13T21:04:03.770Z,6.30
2023-01-13T21:06:34.637Z,6.20
2023-01-13T21:09:01.898Z,6.20
2023-01-13T21:11:51.166Z,6.20
2023-01-13T21:14:43.616Z,6.30
2023-01-13T21:17:30.022Z,6.30
2023-01-13T21:19:57.419Z,6.30
2023-01-13T21:22:24.923Z,6.30
2023-01-13T21:24:52.129Z,6.40
2023-01-13T21:27:19.639Z,6.30
2023-01-13T21:29:54.050Z,6.30
2023-01-13T21:32:24.438Z,6.30
2023-01-13T21:34:51.745Z,6.20
2023-01-13T21:37:22.465Z,6.30
2023-01-13T21:39:49.767Z,6.20
2023-01-13T21:42:36.272Z,6.20
2023-01-13T21:45:21.991Z,6.30
2023-01-13T21:47:52.899Z,6.30
2023-01-13T21:50:21.292Z,6.30
2023-01-13T21:52:49.448Z,6.20
2023-01-13T21:55:28.598Z,6.20
2023-01-13T21:58:00.928Z,6.20
2023-01-13T22:00:29.113Z,6.30
2023-01-13T22:03:00.981Z,6.30
2023-01-13T22:05:28.585Z,6.30
2023-01-13T22:07:55.735Z,6.30
2023-01-13T22:10:27.460Z,6.30
2023-01-13T22:13:02.592Z,6.40
2023-01-13T22:15:34.145Z,6.40
2023-01-13T22:18:10.364Z,6.40
2023-01-13T22:20:42.577Z,6.50
2023-01-13T22:23:14.440Z,6.50
2023-01-13T22:25:52.912Z,6.40
2023-01-13T22:28:36.272Z,6.50
2023-01-13T22:31:09.876Z,6.50
2023-01-13T22:33:37.555Z,6.50
2023-01-13T22:36:07.292Z,6.50
2023-01-13T22:38:35.397Z,6.60
2023-01-13T22:41:06.899Z,6.60
2023-01-13T22:43:45.182Z,6.70
2023-01-13T22:46:13.568Z,6.80
2023-01-13T22:48:40.918Z,6.70
2023-01-13T22:51:12.007Z,6.80
2023-01-13T22:53:42.630Z,6.80
2023-01-13T22:56:23.071Z,6.80
2023-01-13T22:58:57.007Z,6.80
2023-01-13T23:01:28.800Z,6.80
2023-01-13T23:04:07.386Z,6.90
2023-01-13T23:06:39.584Z,6.90
2023-01-13T23:09:10.201Z,7.00
2023-01-13T23:11:37.761Z,7.00
2023-01-13T23:14:07.069Z,7.00
2023-01-13T23:16:35.160Z,7.00
2023-01-13T23:19:02.855Z,7.00
2023-01-13T23:21:31.125Z,7.00
2023-01-13T23:24:08.764Z,7.10
2023-01-13T23:26:36.171Z,7.10
2023-01-13T23:29:06.284Z,7.10
2023-01-13T23:32:01.267Z,7.10
2023-01-13T23:34:29.145Z,7.10
2023-01-13T23:36:56.470Z,7.10
2023-01-13T23:39:27.033Z,7.20
2023-01-13T23:41:55.066Z,7.20
2023-01-13T23:44:22.471Z,7.30
2023-01-13T23:46:53.424Z,7.30
2023-01-13T23:49:21.293Z,7.30
2023-01-13T23:51:51.708Z,7.30
2023-01-13T23:54:22.470Z,7.40
2023-01-13T23:56:49.882Z,7.30
2023-01-13T23:59:17.167Z,7.40
